Time;durP1;ratioP1;P1;durP2;ratioP2;P2;SDS_P1;SDS_P2;PMS_P1;PMS_P2;Temp;Humidity;BMP_temperature;BMP_pressure;BME280_temperature;BME280_humidity;BME280_pressure;Samples;Min_cycle;Max_cycle;Signal;HPM_P1;HPM_P2
2023/09/10 00:00:50;;;;;;;11.23;5.70;;;26.00;99.90;;;;;;5034267;28;20373;-54
2023/09/10 00:03:16;;;;;;;9.20;5.18;;;26.00;99.90;;;;;;5039667;28;21123;-53
2023/09/10 00:05:42;;;;;;;8.00;4.85;;;26.00;99.90;;;;;;5024243;28;20105;-53
2023/09/10 00:08:08;;;;;;;15.93;5.32;;;26.00;99.90;;;;;;5030127;28;20041;-54
2023/09/10 00:10:34;;;;;;;10.02;5.72;;;26.00;99.90;;;;;;5038617;28;20014;-53
2023/09/10 00:12:59;;;;;;;9.90;5.68;;;26.00;99.90;;;;;;5038602;28;20413;-53
2023/09/10 00:15:25;;;;;;;10.45;5.82;;;26.00;99.90;;;;;;5040564;28;20033;-50
2023/09/10 00:17:52;;;;;;;7.55;6.03;;;26.00;99.90;;;;;;5033141;28;20647;-51
2023/09/10 00:20:18;;;;;;;7.53;5.35;;;26.00;99.90;;;;;;5033564;28;20378;-52
2023/09/10 00:22:44;;;;;;;10.43;6.20;;;26.00;99.90;;;;;;5039068;28;20664;-53
2023/09/10 00:25:10;;;;;;;7.22;5.68;;;26.00;99.90;;;;;;5033478;28;20018;-52
2023/09/10 00:27:36;;;;;;;7.43;5.47;;;26.00;99.90;;;;;;5036927;28;20025;-52
2023/09/10 00:30:03;;;;;;;13.20;6.05;;;26.00;99.90;;;;;;5035371;28;20509;-53
2023/09/10 00:32:29;;;;;;;9.57;6.13;;;26.00;99.90;;;;;;5034786;28;20091;-53
2023/09/10 00:34:55;;;;;;;8.00;5.68;;;26.00;99.90;;;;;;5037958;28;20430;-52
2023/09/10 00:37:20;;;;;;;10.25;5.28;;;25.90;99.90;;;;;;5039955;28;20043;-53
2023/09/10 00:39:46;;;;;;;7.80;5.60;;;25.90;99.90;;;;;;5033933;28;20247;-53
2023/09/10 00:42:12;;;;;;;8.10;5.82;;;25.90;99.90;;;;;;5034455;28;20026;-52
2023/09/10 00:44:38;;;;;;;6.90;5.10;;;25.90;99.90;;;;;;5034590;28;20021;-53
2023/09/10 00:47:05;;;;;;;9.98;6.00;;;25.80;99.90;;;;;;5034586;28;20021;-53
2023/09/10 00:49:31;;;;;;;7.88;5.00;;;25.80;99.90;;;;;;5034982;28;20025;-52
2023/09/10 00:52:02;;;;;;;10.30;5.97;;;25.80;99.90;;;;;;5035339;28;20021;-52
2023/09/10 00:54:32;;;;;;;9.85;5.75;;;25.80;99.90;;;;;;5035291;28;20026;-52
2023/09/10 00:57:02;;;;;;;9.43;6.10;;;25.70;99.90;;;;;;5035243;28;20116;-53
2023/09/10 00:59:31;;;;;;;7.68;5.00;;;25.70;99.90;;;;;;5035006;28;20030;-53
2023/09/10 01:02:02;;;;;;;6.80;5.90;;;25.70;99.90;;;;;;5047079;22;20061;-60
2023/09/10 01:04:28;;;;;;;10.43;5.90;;;25.70;99.90;;;;;;5034559;28;20033;-60
2023/09/10 01:06:54;;;;;;;9.60;5.63;;;25.70;99.90;;;;;;5034866;28;20026;-59
2023/09/10 01:09:20;;;;;;;8.32;5.18;;;25.70;99.90;;;;;;5034851;28;20033;-61
2023/09/10 01:12:09;;;;;;;12.60;5.93;;;25.70;99.90;;;;;;5033613;28;20428;-61
2023/09/10 01:14:39;;;;;;;6.55;5.20;;;25.70;99.90;;;;;;5033304;28;20025;-59
2023/09/10 01:17:23;;;;;;;8.52;5.68;;;25.80;99.90;;;;;;5033304;28;20116;-61
2023/09/10 01:20:18;;;;;;;7.40;5.85;;;25.80;99.90;;;;;;5031691;28;20022;-58
2023/09/10 01:23:00;;;;;;;6.53;5.50;;;25.80;99.90;;;;;;5033295;28;20025;-58
2023/09/10 01:25:26;;;;;;;7.50;4.97;;;25.80;99.90;;;;;;5031980;28;20362;-58
2023/09/10 01:27:51;;;;;;;15.63;7.25;;;25.90;99.90;;;;;;5032068;28;20028;-57
2023/09/10 01:30:17;;;;;;;7.43;5.22;;;25.90;99.90;;;;;;5034605;28;20105;-57
2023/09/10 01:32:56;;;;;;;9.80;5.20;;;25.90;99.90;;;;;;5033194;28;20025;-57
2023/09/10 01:35:49;;;;;;;8.45;6.32;;;25.90;99.90;;;;;;5034339;28;20053;-57
2023/09/10 01:38:42;;;;;;;7.90;5.50;;;26.00;99.90;;;;;;5033253;28;20481;-59
2023/09/10 01:41:19;;;;;;;7.57;5.78;;;26.00;99.90;;;;;;5020481;28;20501;-60
2023/09/10 01:43:46;;;;;;;8.23;5.75;;;26.00;99.90;;;;;;5034252;28;20055;-59
2023/09/10 01:46:13;;;;;;;12.32;5.90;;;26.00;99.90;;;;;;5033547;28;20056;-59
2023/09/10 01:48:39;;;;;;;;;;;26.00;99.90;;;;;;5034711;28;20021;-59
2023/09/10 01:51:05;;;;;;;6.25;5.60;;;26.00;99.90;;;;;;5034124;28;20000;-58
2023/09/10 01:53:31;;;;;;;15.05;6.50;;;26.00;99.90;;;;;;5034232;28;20061;-59
2023/09/10 01:55:56;;;;;;;10.40;6.05;;;26.00;99.90;;;;;;5034091;28;20083;-59
2023/09/10 01:58:23;;;;;;;13.18;6.28;;;26.00;99.90;;;;;;5032633;28;20037;-61
2023/09/10 02:00:49;;;;;;;8.27;6.35;;;26.00;99.90;;;;;;5034293;28;20074;-61
2023/09/10 02:03:14;;;;;;;9.15;5.72;;;26.00;99.90;;;;;;5033830;28;20025;-60
2023/09/10 02:05:43;;;;;;;8.23;5.35;;;26.10;99.90;;;;;;5033689;28;20021;-60
2023/09/10 02:08:09;;;;;;;7.07;5.22;;;26.00;99.90;;;;;;5032559;28;20022;-61
2023/09/10 02:10:36;;;;;;;8.93;6.25;;;26.00;99.90;;;;;;5033941;28;20022;-61
2023/09/10 02:13:03;;;;;;;7.28;5.63;;;26.10;99.90;;;;;;5033881;28;20470;-61
2023/09/10 02:15:29;;;;;;;7.47;6.50;;;26.00;99.90;;;;;;5033636;28;20397;-61
2023/09/10 02:17:56;;;;;;;9.00;5.63;;;26.00;99.90;;;;;;5033507;28;20112;-61
2023/09/10 02:20:22;;;;;;;16.97;5.83;;;26.00;99.90;;;;;;5033580;28;20022;-61
2023/09/10 02:22:48;;;;;;;9.40;6.32;;;26.00;99.90;;;;;;5033347;28;20489;-60
2023/09/10 02:25:14;;;;;;;10.85;5.50;;;26.00;99.90;;;;;;5032041;28;20497;-60
2023/09/10 02:27:40;;;;;;;9.02;5.20;;;26.00;99.90;;;;;;5033202;28;20022;-61
2023/09/10 02:30:07;;;;;;;8.65;5.35;;;26.00;99.90;;;;;;5033514;28;20029;-60
2023/09/10 02:32:33;;;;;;;;;;;26.00;99.90;;;;;;5033942;28;20021;-61
2023/09/10 02:34:59;;;;;;;9.93;5.75;;;26.00;99.90;;;;;;5033292;28;20000;-61
2023/09/10 02:37:25;;;;;;;8.88;5.80;;;26.00;99.90;;;;;;5033034;28;20040;-60
2023/09/10 02:39:50;;;;;;;7.00;5.07;;;26.00;99.90;;;;;;5033068;28;20025;-60
2023/09/10 02:42:17;;;;;;;7.10;5.68;;;26.00;99.90;;;;;;5033114;28;20105;-61
2023/09/10 02:44:43;;;;;;;8.77;6.05;;;26.00;99.90;;;;;;5033220;28;20028;-61
2023/09/10 02:47:09;;;;;;;9.15;6.38;;;26.00;99.90;;;;;;5033076;28;20030;-61
2023/09/10 02:49:35;;;;;;;9.60;5.93;;;26.00;99.90;;;;;;5031772;28;20047;-62
2023/09/10 02:52:01;;;;;;;9.02;6.22;;;26.00;99.90;;;;;;5032990;28;20033;-61
2023/09/10 02:54:28;;;;;;;9.00;5.53;;;26.00;99.90;;;;;;5032943;28;20500;-61
2023/09/10 02:56:54;;;;;;;11.80;5.95;;;26.00;99.90;;;;;;5031508;28;20033;-60
2023/09/10 02:59:25;;;;;;;7.55;5.05;;;26.00;99.90;;;;;;5032875;28;20503;-60
2023/09/10 03:01:52;;;;;;;11.48;5.97;;;26.00;99.90;;;;;;5045054;22;20064;-54
2023/09/10 03:04:18;;;;;;;11.40;5.97;;;26.00;99.90;;;;;;5032682;28;20045;-53
2023/09/10 03:06:48;;;;;;;10.85;7.05;;;26.00;99.90;;;;;;5032717;28;20017;-54
2023/09/10 03:09:15;;;;;;;10.05;7.22;;;26.00;99.90;;;;;;5032594;28;20021;-53
2023/09/10 03:11:42;;;;;;;7.70;6.88;;;26.00;99.90;;;;;;5032454;28;20028;-53
2023/09/10 03:14:09;;;;;;;8.00;6.55;;;26.00;99.90;;;;;;5032737;28;20029;-52
2023/09/10 03:16:36;;;;;;;11.02;6.68;;;26.00;99.90;;;;;;5032563;28;20022;-52
2023/09/10 03:19:03;;;;;;;7.78;5.63;;;26.00;99.90;;;;;;5032579;28;20097;-53
2023/09/10 03:21:28;;;;;;;10.45;6.75;;;26.00;99.90;;;;;;5032408;28;20116;-53
2023/09/10 03:23:55;;;;;;;8.85;6.40;;;26.00;99.90;;;;;;5032327;28;20105;-54
2023/09/10 03:26:21;;;;;;;9.55;6.53;;;26.00;99.90;;;;;;5032531;28;20033;-54
2023/09/10 03:28:47;;;;;;;7.70;6.55;;;26.00;99.90;;;;;;5032488;28;20021;-53
2023/09/10 03:31:13;;;;;;;9.45;6.47;;;26.00;99.90;;;;;;5031035;28;20550;-53
2023/09/10 03:33:40;;;;;;;12.38;6.53;;;26.00;99.90;;;;;;5032580;28;20362;-54
2023/09/10 03:36:06;;;;;;;7.10;6.03;;;26.00;99.90;;;;;;5031092;28;20477;-53
2023/09/10 03:38:32;;;;;;;9.55;6.03;;;26.00;99.90;;;;;;5032225;28;20037;-53
2023/09/10 03:40:57;;;;;;;8.68;6.13;;;26.00;99.90;;;;;;5031713;28;20018;-53
2023/09/10 03:43:23;;;;;;;11.80;6.20;;;26.00;99.90;;;;;;5031963;28;20056;-54
2023/09/10 03:45:49;;;;;;;8.00;6.00;;;26.00;99.90;;;;;;5032032;28;20049;-54
2023/09/10 03:48:15;;;;;;;11.02;6.70;;;26.00;99.90;;;;;;5032129;28;20032;-53
2023/09/10 03:50:41;;;;;;;15.13;7.15;;;26.00;99.90;;;;;;5026554;28;20022;-54
2023/09/10 03:53:07;;;;;;;13.85;6.40;;;26.00;99.90;;;;;;5012103;28;20030;-54
2023/09/10 03:55:33;;;;;;;10.93;5.88;;;26.00;99.90;;;;;;5011297;28;20112;-54
2023/09/10 03:57:59;;;;;;;10.07;6.30;;;26.00;99.90;;;;;;5026592;28;20034;-53
2023/09/10 04:00:26;;;;;;;7.43;5.82;;;26.00;99.90;;;;;;5012807;28;20028;-55
2023/09/10 04:02:52;;;;;;;7.22;5.88;;;26.00;99.90;;;;;;5011457;28;20068;-54
2023/09/10 04:05:18;;;;;;;6.50;4.97;;;26.00;99.90;;;;;;5012238;28;20073;-54
2023/09/10 04:07:44;;;;;;;10.32;5.53;;;26.00;99.90;;;;;;5012245;28;20025;-52
2023/09/10 04:10:10;;;;;;;6.15;5.22;;;26.00;99.90;;;;;;5012321;28;20050;-53
2023/09/10 04:12:37;;;;;;;7.43;5.72;;;26.00;99.90;;;;;;5012199;28;20056;-54
2023/09/10 04:15:04;;;;;;;5.13;4.63;;;26.00;99.90;;;;;;5010855;28;20030;-54
2023/09/10 04:17:30;;;;;;;7.03;5.35;;;26.00;99.90;;;;;;5012174;28;20481;-53
2023/09/10 04:19:59;;;;;;;8.93;5.47;;;26.00;99.90;;;;;;5012037;28;20133;-53
2023/09/10 04:22:25;;;;;;;8.77;5.22;;;26.00;99.90;;;;;;5012130;28;20408;-53
2023/09/10 04:24:51;;;;;;;14.43;6.32;;;26.00;99.90;;;;;;5012117;28;20026;-53
2023/09/10 04:27:16;;;;;;;8.20;5.05;;;26.00;99.90;;;;;;5011979;28;20520;-54
2023/09/10 04:29:43;;;;;;;6.45;5.78;;;26.00;99.90;;;;;;5012348;28;20030;-54
2023/09/10 04:32:08;;;;;;;8.55;6.05;;;26.00;99.90;;;;;;5010874;28;20041;-54
2023/09/10 04:34:34;;;;;;;10.80;5.60;;;26.00;99.90;;;;;;5011948;28;20128;-53
2023/09/10 04:37:03;;;;;;;11.63;9.00;;;26.00;99.90;;;;;;5011923;28;20470;-53
2023/09/10 04:39:29;;;;;;;8.80;6.47;;;26.00;99.90;;;;;;5011871;28;20072;-53
2023/09/10 04:41:54;;;;;;;12.27;7.78;;;26.00;99.90;;;;;;5010843;28;20072;-55
2023/09/10 04:44:20;;;;;;;11.13;6.68;;;26.00;99.90;;;;;;5012001;28;20026;-54
2023/09/10 04:46:46;;;;;;;10.43;8.00;;;26.00;99.90;;;;;;5010743;28;20038;-53
2023/09/10 04:49:12;;;;;;;12.07;6.88;;;26.00;99.90;;;;;;5016103;28;20021;-53
2023/09/10 04:51:38;;;;;;;6.13;5.55;;;26.00;99.90;;;;;;5031733;28;20033;-53
2023/09/10 04:54:04;;;;;;;9.82;6.15;;;26.00;99.90;;;;;;5035099;28;20017;-52
2023/09/10 04:56:29;;;;;;;6.95;5.78;;;26.00;99.90;;;;;;5035009;28;20036;-53
2023/09/10 04:58:55;;;;;;;9.63;6.57;;;26.00;99.90;;;;;;5035092;28;20096;-54
2023/09/10 05:01:21;;;;;;;8.57;6.28;;;26.00;99.90;;;;;;5034773;28;20045;-53
2023/09/10 05:03:47;;;;;;;12.43;6.30;;;26.00;99.90;;;;;;5033603;28;20119;-53
2023/09/10 05:06:13;;;;;;;8.10;5.75;;;25.90;99.90;;;;;;5035010;28;20044;-52
2023/09/10 05:08:39;;;;;;;9.85;7.30;;;26.00;99.90;;;;;;5033613;28;20437;-54
2023/09/10 05:11:05;;;;;;;9.57;5.85;;;25.90;99.90;;;;;;5034823;28;20108;-54
2023/09/10 05:13:31;;;;;;;8.40;6.30;;;25.90;99.90;;;;;;5034850;28;20049;-53
2023/09/10 05:15:57;;;;;;;8.35;5.95;;;25.90;99.90;;;;;;5034753;28;20095;-53
2023/09/10 05:18:24;;;;;;;8.18;5.80;;;25.90;99.90;;;;;;5034475;28;20034;-54
2023/09/10 05:20:52;;;;;;;11.85;6.30;;;25.90;99.90;;;;;;5034722;28;20047;-54
2023/09/10 05:23:20;;;;;;;7.55;6.13;;;25.90;99.90;;;;;;5033286;28;20056;-54
2023/09/10 05:25:46;;;;;;;8.32;5.80;;;25.90;99.90;;;;;;5034697;28;20401;-54
2023/09/10 05:28:12;;;;;;;7.72;6.25;;;25.90;99.90;;;;;;5034731;28;20021;-54
2023/09/10 05:30:38;;;;;;;12.63;6.50;;;25.90;99.90;;;;;;5034501;28;20051;-54
2023/09/10 05:33:04;;;;;;;9.02;6.00;;;25.90;99.90;;;;;;5034351;28;20018;-53
2023/09/10 05:35:30;;;;;;;10.40;6.57;;;25.90;99.90;;;;;;5034391;28;20485;-55
2023/09/10 05:37:56;;;;;;;7.20;6.10;;;25.90;99.90;;;;;;5034410;28;20048;-55
2023/09/10 05:40:22;;;;;;;8.63;6.20;;;25.90;99.90;;;;;;5033026;28;20027;-54
2023/09/10 05:42:48;;;;;;;9.27;6.30;;;25.90;99.90;;;;;;5034285;28;20377;-55
2023/09/10 05:45:14;;;;;;;8.68;6.53;;;25.90;99.90;;;;;;5034414;28;20508;-53
2023/09/10 05:47:39;;;;;;;7.38;6.15;;;25.90;99.90;;;;;;5034050;28;20032;-54
2023/09/10 05:50:06;;;;;;;9.23;5.55;;;25.80;99.90;;;;;;5034030;28;20087;-53
2023/09/10 05:52:32;;;;;;;10.60;6.32;;;25.90;99.90;;;;;;5033977;28;20025;-55
2023/09/10 05:54:57;;;;;;;10.35;7.00;;;25.80;99.90;;;;;;5034030;28;20079;-54
2023/09/10 05:57:23;;;;;;;8.75;6.22;;;25.80;99.90;;;;;;5033816;28;20029;-54
2023/09/10 05:59:49;;;;;;;10.95;6.10;;;25.80;99.90;;;;;;5033853;28;20096;-54
2023/09/10 06:02:15;;;;;;;7.18;6.47;;;25.80;99.90;;;;;;5033643;28;20530;-55
2023/09/10 06:04:41;;;;;;;7.13;5.82;;;25.80;99.90;;;;;;5033531;28;20044;-54
2023/09/10 06:07:07;;;;;;;8.77;5.63;;;25.80;99.90;;;;;;5033801;28;20553;-55
2023/09/10 06:09:33;;;;;;;7.32;6.05;;;25.80;99.90;;;;;;5033750;28;20033;-54
2023/09/10 06:12:04;;;;;;;13.82;6.55;;;25.80;99.90;;;;;;5033703;28;20080;-54
2023/09/10 06:14:33;;;;;;;9.23;6.75;;;25.80;99.90;;;;;;5033584;28;20025;-54
2023/09/10 06:16:59;;;;;;;13.32;7.75;;;25.80;99.90;;;;;;5033470;28;20033;-54
2023/09/10 06:19:25;;;;;;;11.10;7.45;;;25.80;99.90;;;;;;5032324;28;20478;-54
2023/09/10 06:21:51;;;;;;;16.00;7.20;;;25.80;99.90;;;;;;5033474;28;20029;-54
2023/09/10 06:24:17;;;;;;;17.60;7.45;;;25.80;99.90;;;;;;5033543;28;20100;-54
2023/09/10 06:26:42;;;;;;;10.90;7.97;;;25.80;99.90;;;;;;5033308;28;20508;-54
2023/09/10 06:29:08;;;;;;;10.93;7.28;;;25.80;99.90;;;;;;5033218;28;20033;-54
2023/09/10 06:31:34;;;;;;;8.82;7.10;;;25.80;99.90;;;;;;5031894;28;20048;-54
2023/09/10 06:34:00;;;;;;;10.50;6.68;;;25.80;99.90;;;;;;5033226;28;20037;-55
2023/09/10 06:36:26;;;;;;;10.68;6.90;;;25.80;99.90;;;;;;5031895;28;20025;-55
2023/09/10 06:38:52;;;;;;;12.13;6.57;;;25.80;99.90;;;;;;5031857;28;20029;-54
2023/09/10 06:41:18;;;;;;;11.75;6.80;;;25.90;99.90;;;;;;5033417;28;20026;-56
2023/09/10 06:43:44;;;;;;;10.68;6.28;;;25.90;99.90;;;;;;5031809;28;20496;-55
2023/09/10 06:46:11;;;;;;;12.50;7.47;;;25.90;99.90;;;;;;5032972;28;20025;-54
2023/09/10 06:48:37;;;;;;;7.85;6.65;;;26.00;99.90;;;;;;5032952;28;20026;-54
2023/09/10 06:51:03;;;;;;;7.18;6.47;;;25.90;99.90;;;;;;5032674;28;20036;-53
2023/09/10 06:53:30;;;;;;;11.07;7.03;;;26.00;99.90;;;;;;5032779;28;20052;-55
2023/09/10 06:55:56;;;;;;;9.97;6.73;;;26.00;99.90;;;;;;5032911;28;20048;-54
2023/09/10 06:58:22;;;;;;;11.50;6.13;;;26.00;99.90;;;;;;5032613;28;20056;-54
2023/09/10 07:00:48;;;;;;;9.48;6.57;;;26.00;99.90;;;;;;5032839;28;20484;-55
2023/09/10 07:03:14;;;;;;;7.78;6.03;;;26.00;99.90;;;;;;5031415;28;20025;-54
2023/09/10 07:05:42;;;;;;;14.55;6.75;;;26.00;99.90;;;;;;5032734;28;20093;-54
2023/09/10 07:08:08;;;;;;;11.85;7.18;;;26.10;99.90;;;;;;5032622;28;20029;-53
2023/09/10 07:10:35;;;;;;;13.07;6.30;;;26.10;99.90;;;;;;5032626;28;20504;-54
2023/09/10 07:13:07;;;;;;;8.95;6.35;;;26.10;99.90;;;;;;5032524;28;20412;-55
2023/09/10 07:15:33;;;;;;;9.07;5.65;;;26.10;99.90;;;;;;5031799;28;20151;-55
2023/09/10 07:18:00;;;;;;;11.63;5.65;;;26.10;99.90;;;;;;5031096;28;20037;-54
2023/09/10 07:20:26;;;;;;;10.10;6.00;;;26.20;99.90;;;;;;5032374;28;20091;-55
2023/09/10 07:22:51;;;;;;;8.88;5.50;;;26.20;99.90;;;;;;5032650;28;20477;-53
2023/09/10 07:25:17;;;;;;;9.80;5.47;;;26.30;99.90;;;;;;5032374;28;20059;-53
2023/09/10 07:27:43;;;;;;;7.00;5.25;;;26.30;99.90;;;;;;5032168;28;20037;-54
2023/09/10 07:30:11;;;;;;;10.25;5.70;;;26.30;99.90;;;;;;5032277;28;20044;-55
2023/09/10 07:32:36;;;;;;;6.22;5.32;;;26.40;99.90;;;;;;5032159;28;20056;-55
2023/09/10 07:35:02;;;;;;;12.07;5.47;;;26.40;99.90;;;;;;5032391;28;20021;-53
2023/09/10 07:37:28;;;;;;;7.13;5.05;;;26.40;99.90;;;;;;5030888;28;20128;-54
2023/09/10 07:39:54;;;;;;;11.00;5.30;;;26.40;99.90;;;;;;5032056;28;20092;-54
2023/09/10 07:42:20;;;;;;;8.38;5.95;;;26.50;99.90;;;;;;5032390;28;20087;-54
2023/09/10 07:44:45;;;;;;;9.15;5.18;;;26.50;99.90;;;;;;5032311;28;20473;-54
2023/09/10 07:47:11;;;;;;;14.68;7.50;;;26.50;99.90;;;;;;5032070;28;20028;-54
2023/09/10 07:49:37;;;;;;;7.72;5.95;;;26.50;99.90;;;;;;5032075;28;20100;-55
2023/09/10 07:52:04;;;;;;;10.38;7.72;;;26.60;99.90;;;;;;5032022;28;20022;-54
2023/09/10 07:54:31;;;;;;;10.20;7.63;;;26.60;99.90;;;;;;5032058;28;20078;-54
2023/09/10 07:56:57;;;;;;;7.60;5.88;;;26.60;99.90;;;;;;5032021;28;20482;-53
2023/09/10 07:59:23;;;;;;;11.52;5.72;;;26.60;99.90;;;;;;5032281;28;20029;-54
2023/09/10 08:01:49;;;;;;;8.50;6.70;;;26.70;99.90;;;;;;5031965;28;20038;-54
2023/09/10 08:04:15;;;;;;;9.15;5.85;;;26.70;99.90;;;;;;5032006;28;20504;-54
2023/09/10 08:06:41;;;;;;;13.90;8.38;;;26.70;99.90;;;;;;5031811;28;20435;-54
2023/09/10 08:09:08;;;;;;;9.65;6.45;;;26.70;99.90;;;;;;5031894;28;20100;-55
2023/09/10 08:11:34;;;;;;;12.47;6.03;;;26.80;99.90;;;;;;5031929;28;20084;-54
2023/09/10 08:14:00;;;;;;;8.52;6.90;;;26.80;99.90;;;;;;5031904;28;20561;-54
2023/09/10 08:16:26;;;;;;;14.20;6.00;;;26.80;99.90;;;;;;5031861;28;20108;-55
2023/09/10 08:18:52;;;;;;;7.30;5.85;;;26.90;99.90;;;;;;5032098;28;20034;-55
2023/09/10 08:21:17;;;;;;;11.18;7.97;;;26.90;99.90;;;;;;5031784;28;20356;-54
2023/09/10 08:23:44;;;;;;;11.20;5.63;;;26.90;99.90;;;;;;5031762;28;20022;-54
2023/09/10 08:26:11;;;;;;;14.73;6.43;;;27.00;99.90;;;;;;5032828;28;20032;-54
2023/09/10 08:28:37;;;;;;;6.63;5.32;;;27.00;99.90;;;;;;5035587;28;20380;-54
2023/09/10 08:31:03;;;;;;;12.88;8.93;;;27.00;99.90;;;;;;5035482;28;20101;-53
2023/09/10 08:33:28;;;;;;;9.13;5.40;;;27.10;99.90;;;;;;5035609;28;20024;-54
2023/09/10 08:35:57;;;;;;;11.75;8.45;;;27.10;99.90;;;;;;5034404;28;20030;-54
2023/09/10 08:38:23;;;;;;;7.43;5.28;;;27.10;99.90;;;;;;5035448;28;20037;-54
2023/09/10 08:40:57;;;;;;;8.10;4.90;;;27.20;99.90;;;;;;5035305;28;20461;-55
2023/09/10 08:43:44;;;;;;;5.63;4.75;;;27.20;99.90;;;;;;5034107;28;20053;-54
2023/09/10 08:46:10;;;;;;;6.47;4.97;;;27.20;99.90;;;;;;5035392;28;20053;-53
2023/09/10 08:48:41;;;;;;;8.23;5.30;;;27.20;99.90;;;;;;5033911;28;20515;-54
2023/09/10 08:51:09;;;;;;;6.35;4.97;;;27.20;99.90;;;;;;5035176;28;20030;-54
2023/09/10 08:53:40;;;;;;;5.85;4.70;;;27.30;99.90;;;;;;5035200;28;20052;-54
2023/09/10 08:56:08;;;;;;;8.43;4.95;;;27.30;99.90;;;;;;5035012;28;20017;-56
2023/09/10 08:58:36;;;;;;;9.05;5.15;;;27.40;99.90;;;;;;5034970;28;20095;-56
2023/09/10 09:01:03;;;;;;;9.00;5.32;;;27.40;99.90;;;;;;5034826;28;20080;-55
2023/09/10 09:03:30;;;;;;;6.25;4.82;;;27.40;99.90;;;;;;5034955;28;20029;-56
2023/09/10 09:06:01;;;;;;;12.88;5.00;;;27.40;99.90;;;;;;5035165;28;20500;-55
2023/09/10 09:08:35;;;;;;;11.95;7.32;;;27.50;99.90;;;;;;5035166;28;20057;-55
2023/09/10 09:11:06;;;;;;;13.02;5.80;;;27.50;99.90;;;;;;5033574;28;20053;-55
2023/09/10 09:13:43;;;;;;;8.50;4.97;;;27.50;99.90;;;;;;5034801;28;20044;-55
2023/09/10 09:16:10;;;;;;;10.02;4.95;;;27.50;99.90;;;;;;5034886;28;20029;-56
2023/09/10 09:18:37;;;;;;;8.43;5.13;;;27.60;99.90;;;;;;5034479;28;20037;-56
2023/09/10 09:21:10;;;;;;;9.30;5.10;;;27.60;99.90;;;;;;5034596;28;20026;-54
2023/09/10 09:23:43;;;;;;;9.75;5.05;;;27.70;99.90;;;;;;5034473;28;20033;-55
2023/09/10 09:26:11;;;;;;;7.90;4.50;;;27.70;99.90;;;;;;5034341;28;20436;-55
2023/09/10 09:28:38;;;;;;;10.77;4.85;;;27.70;99.90;;;;;;5034450;28;20026;-55
2023/09/10 09:31:08;;;;;;;;;;;27.70;99.90;;;;;;5033483;28;20029;-54
2023/09/10 09:33:36;;;;;;;11.43;5.88;;;27.70;99.90;;;;;;5034497;28;19905;-55
2023/09/10 09:36:05;;;;;;;;;;;27.70;99.90;;;;;;5034889;28;20032;-55
2023/09/10 09:38:31;;;;;;;8.18;4.82;;;27.70;99.90;;;;;;5033370;28;19967;-56
2023/09/10 09:40:56;;;;;;;8.70;5.22;;;27.70;99.90;;;;;;5034414;28;20396;-55
2023/09/10 09:43:22;;;;;;;8.75;5.25;;;27.70;99.90;;;;;;5034178;28;20350;-55
2023/09/10 09:45:48;;;;;;;9.07;5.43;;;27.80;99.90;;;;;;5034012;28;20054;-55
2023/09/10 09:48:14;;;;;;;9.77;5.25;;;27.80;99.90;;;;;;5034038;28;20033;-55
2023/09/10 09:50:40;;;;;;;10.27;5.85;;;27.80;99.90;;;;;;5034065;28;20029;-55
2023/09/10 09:53:06;;;;;;;12.90;6.32;;;27.80;99.90;;;;;;5033722;28;20025;-55
2023/09/10 09:55:32;;;;;;;8.82;5.40;;;27.90;99.90;;;;;;5034028;28;20025;-55
2023/09/10 09:57:58;;;;;;;7.97;5.00;;;27.90;99.90;;;;;;5034023;28;20454;-56
2023/09/10 10:00:23;;;;;;;9.63;4.28;;;27.90;99.90;;;;;;5033628;28;20028;-56
2023/09/10 10:02:50;;;;;;;9.35;4.38;;;27.90;99.90;;;;;;5033778;28;20034;-57
2023/09/10 10:05:17;;;;;;;5.68;4.30;;;28.00;99.90;;;;;;5033679;28;20026;-55
2023/09/10 10:07:43;;;;;;;5.68;4.20;;;28.00;99.90;;;;;;5033666;28;20076;-56
2023/09/10 10:10:15;;;;;;;8.70;3.83;;;28.00;99.90;;;;;;5033497;28;20441;-55
2023/09/10 10:12:44;;;;;;;10.90;4.68;;;28.10;99.90;;;;;;5033597;28;20024;-55
2023/09/10 10:15:12;;;;;;;11.93;4.50;;;28.10;99.90;;;;;;5033344;28;20021;-55
2023/09/10 10:17:42;;;;;;;5.78;4.05;;;28.20;99.90;;;;;;5033395;28;20120;-56
2023/09/10 10:20:09;;;;;;;6.63;4.22;;;28.20;99.90;;;;;;5033450;28;20032;-55
2023/09/10 10:22:36;;;;;;;7.18;3.97;;;28.20;99.90;;;;;;5033511;28;20022;-56
2023/09/10 10:25:04;;;;;;;8.20;3.92;;;28.30;99.90;;;;;;5033672;28;20025;-56
2023/09/10 10:27:33;;;;;;;6.78;4.20;;;28.30;99.90;;;;;;5033603;28;20101;-56
2023/09/10 10:29:59;;;;;;;10.68;4.40;;;28.30;99.90;;;;;;5033523;28;20017;-56
2023/09/10 10:32:36;;;;;;;8.13;4.07;;;28.30;99.90;;;;;;5032049;28;20112;-56
2023/09/10 10:35:08;;;;;;;5.75;4.18;;;28.40;99.90;;;;;;5031924;28;20103;-55
2023/09/10 10:37:53;;;;;;;4.63;3.45;;;28.40;99.90;;;;;;5033051;28;20037;-55
2023/09/10 10:40:23;;;;;;;6.38;3.45;;;28.40;99.90;;;;;;5033127;28;20108;-55
2023/09/10 10:43:03;;;;;;;9.65;4.43;;;28.40;99.90;;;;;;5031846;28;20075;-55
2023/09/10 10:45:31;;;;;;;9.02;3.65;;;28.50;99.90;;;;;;5033167;28;20480;-55
2023/09/10 10:48:12;;;;;;;11.30;4.75;;;28.50;99.90;;;;;;5031650;28;20037;-55
2023/09/10 10:50:42;;;;;;;4.85;3.75;;;28.50;99.90;;;;;;5032937;28;20107;-55
2023/09/10 10:53:26;;;;;;;5.03;3.03;;;28.50;99.90;;;;;;5032843;28;20029;-56
2023/09/10 10:55:56;;;;;;;7.18;3.45;;;28.60;99.90;;;;;;5032845;28;20378;-55
2023/09/10 10:58:25;;;;;;;6.35;4.22;;;28.60;99.90;;;;;;5032784;28;20083;-55
2023/09/10 11:00:53;;;;;;;7.85;4.00;;;28.60;99.90;;;;;;5031326;28;20045;-55
2023/09/10 11:03:20;;;;;;;6.05;4.20;;;28.60;99.90;;;;;;5032579;28;20033;-56
2023/09/10 11:06:06;;;;;;;9.73;4.35;;;28.70;99.90;;;;;;5032585;28;20385;-56
2023/09/10 11:08:36;;;;;;;7.40;4.13;;;28.80;99.90;;;;;;5032839;28;20087;-56
2023/09/10 11:11:04;;;;;;;8.05;3.80;;;28.80;99.90;;;;;;5032805;28;20441;-57
2023/09/10 11:13:32;;;;;;;9.85;4.15;;;28.80;99.90;;;;;;5032786;28;20030;-57
2023/09/10 11:16:03;;;;;;;5.47;3.72;;;28.90;99.90;;;;;;5032404;28;20039;-57
2023/09/10 11:18:38;;;;;;;7.88;3.50;;;28.90;99.90;;;;;;5032387;28;20025;-57
2023/09/10 11:21:07;;;;;;;8.40;4.05;;;28.90;99.90;;;;;;5032518;28;20138;-57
2023/09/10 11:23:34;;;;;;;6.97;3.90;;;28.90;99.90;;;;;;5030942;28;20397;-57
2023/09/10 11:26:12;;;;;;;5.97;3.90;;;29.00;99.90;;;;;;5031493;28;20030;-56
2023/09/10 11:28:55;;;;;;;6.88;3.97;;;29.00;99.90;;;;;;5030684;28;20375;-57
2023/09/10 11:31:45;;;;;;;12.70;4.18;;;29.00;99.90;;;;;;5029756;28;20121;-57
2023/09/10 11:37:03;;;;;;;6.72;3.17;;;29.10;99.90;;;;;;5031501;28;20029;-56
2023/09/10 11:39:30;;;;;;;7.18;3.80;;;29.10;99.90;;;;;;5031421;28;20371;-51
2023/09/10 11:41:58;;;;;;;8.65;3.58;;;29.10;99.90;;;;;;5031142;28;20076;-52
2023/09/10 11:44:24;;;;;;;4.60;2.70;;;29.10;99.90;;;;;;5032087;28;20048;-53
2023/09/10 11:46:51;;;;;;;6.35;3.00;;;29.20;99.90;;;;;;5031233;28;20026;-54
2023/09/10 11:49:20;;;;;;;6.55;4.00;;;29.10;99.90;;;;;;5032123;28;20112;-58
2023/09/10 11:51:48;;;;;;;5.20;3.92;;;29.10;99.90;;;;;;5031374;28;20374;-53
2023/09/10 11:54:18;;;;;;;5.90;4.07;;;29.10;99.90;;;;;;5029114;28;20032;-54
2023/09/10 11:56:48;;;;;;;8.25;4.10;;;29.10;99.90;;;;;;5030953;28;20116;-54
2023/09/10 11:59:15;;;;;;;10.90;4.07;;;29.10;99.90;;;;;;5031627;28;20048;-54
2023/09/10 12:01:41;;;;;;;5.63;3.03;;;29.10;99.90;;;;;;5033003;28;20038;-54
2023/09/10 12:04:07;;;;;;;8.18;3.70;;;29.10;99.90;;;;;;5034569;28;20026;-54
2023/09/10 12:06:33;;;;;;;6.72;3.60;;;29.10;99.90;;;;;;5035554;28;20060;-55
2023/09/10 12:08:59;;;;;;;8.57;4.15;;;29.10;99.90;;;;;;5034888;28;20052;-53
2023/09/10 12:11:26;;;;;;;12.98;5.00;;;29.10;99.90;;;;;;5034848;28;20021;-53
2023/09/10 12:13:53;;;;;;;5.45;4.55;;;29.10;99.90;;;;;;5034591;28;20033;-54
2023/09/10 12:16:19;;;;;;;6.03;3.87;;;29.10;99.90;;;;;;5034991;28;20018;-53
2023/09/10 12:18:46;;;;;;;9.85;3.90;;;29.10;99.90;;;;;;5034828;28;20527;-53
2023/09/10 12:21:15;;;;;;;7.72;4.82;;;29.10;99.90;;;;;;5034797;28;20028;-54
2023/09/10 12:23:43;;;;;;;8.02;3.42;;;29.10;99.90;;;;;;5035212;28;20029;-54
2023/09/10 12:26:11;;;;;;;10.18;3.60;;;29.10;99.90;;;;;;5035235;28;20107;-54
2023/09/10 12:28:38;;;;;;;9.30;4.78;;;29.10;99.90;;;;;;5035713;28;20021;-55
2023/09/10 12:31:04;;;;;;;7.07;3.30;;;29.10;99.90;;;;;;5035874;28;20029;-55
2023/09/10 12:33:31;;;;;;;6.70;3.37;;;29.10;99.90;;;;;;5035610;28;20469;-54
2023/09/10 12:35:56;;;;;;;7.00;3.90;;;29.10;99.90;;;;;;5035053;28;20030;-54
2023/09/10 12:38:22;;;;;;;9.98;4.43;;;29.10;99.90;;;;;;5034569;28;20591;-52
2023/09/10 12:40:50;;;;;;;12.68;7.82;;;29.10;99.90;;;;;;5034792;28;20017;-54
2023/09/10 12:43:18;;;;;;;;;;;29.10;99.90;;;;;;5035835;28;20100;-54
2023/09/10 12:45:44;;;;;;;7.85;4.03;;;29.20;99.90;;;;;;5035422;28;20003;-54
2023/09/10 12:48:11;;;;;;;10.38;5.65;;;29.20;99.90;;;;;;5034105;28;20049;-54
2023/09/10 12:50:37;;;;;;;5.90;3.70;;;29.20;99.90;;;;;;5027018;28;20654;-56